sensor_id;sensor_type;location;lat;lon;timestamp;temperature;humidity
52275;DHT22;38228;50.940;4.024;2023-04-03T00:00:13;2.70;99.90
52275;DHT22;38228;50.940;4.024;2023-04-03T00:02:38;2.80;99.90
52275;DHT22;38228;50.940;4.024;2023-04-03T00:05:06;2.70;99.90
52275;DHT22;38228;50.940;4.024;2023-04-03T00:07:31;2.70;99.90
52275;DHT22;38228;50.940;4.024;2023-04-03T00:09:57;2.60;99.90
52275;DHT22;38228;50.940;4.024;2023-04-03T00:12:23;2.60;99.90
52275;DHT22;38228;50.940;4.024;2023-04-03T00:14:48;2.50;99.90
52275;DHT22;38228;50.940;4.024;2023-04-03T00:17:14;2.40;99.90
52275;DHT22;38228;50.940;4.024;2023-04-03T00:19:39;2.40;99.90
52275;DHT22;38228;50.940;4.024;2023-04-03T00:22:05;2.50;99.90
52275;DHT22;38228;50.940;4.024;2023-04-03T00:24:31;2.60;99.90
52275;DHT22;38228;50.940;4.024;2023-04-03T00:26:56;2.60;99.90
52275;DHT22;38228;50.940;4.024;2023-04-03T00:29:22;2.60;99.90
52275;DHT22;38228;50.940;4.024;2023-04-03T00:31:47;2.60;99.90
52275;DHT22;38228;50.940;4.024;2023-04-03T00:34:13;2.50;99.90
52275;DHT22;38228;50.940;4.024;2023-04-03T00:36:38;2.40;99.90
52275;DHT22;38228;50.940;4.024;2023-04-03T00:39:04;2.70;99.90
52275;DHT22;38228;50.940;4.024;2023-04-03T00:41:31;2.80;99.90
52275;DHT22;38228;50.940;4.024;2023-04-03T00:43:57;2.70;99.90
52275;DHT22;38228;50.940;4.024;2023-04-03T00:46:22;2.50;99.90
52275;DHT22;38228;50.940;4.024;2023-04-03T00:48:48;2.50;99.90
52275;DHT22;38228;50.940;4.024;2023-04-03T00:51:16;2.60;99.90
52275;DHT22;38228;50.940;4.024;2023-04-03T00:53:44;2.60;99.90
52275;DHT22;38228;50.940;4.024;2023-04-03T00:56:12;2.70;99.90
52275;DHT22;38228;50.940;4.024;2023-04-03T00:58:43;2.80;99.90
52275;DHT22;38228;50.940;4.024;2023-04-03T01:01:11;2.70;99.90
52275;DHT22;38228;50.940;4.024;2023-04-03T01:03:37;2.60;99.90
52275;DHT22;38228;50.940;4.024;2023-04-03T01:06:03;2.50;99.90
52275;DHT22;38228;50.940;4.024;2023-04-03T01:08:29;2.40;99.90
52275;DHT22;38228;50.940;4.024;2023-04-03T01:10:55;2.30;99.90
52275;DHT22;38228;50.940;4.024;2023-04-03T01:15:49;2.40;99.90
52275;DHT22;38228;50.940;4.024;2023-04-03T01:18:15;2.40;99.90
52275;DHT22;38228;50.940;4.024;2023-04-03T01:25:39;2.20;99.90
52275;DHT22;38228;50.940;4.024;2023-04-03T01:28:05;2.20;99.90
52275;DHT22;38228;50.940;4.024;2023-04-03T01:30:32;2.10;99.90
52275;DHT22;38228;50.940;4.024;2023-04-03T01:32:58;2.10;99.90
52275;DHT22;38228;50.940;4.024;2023-04-03T01:35:24;2.10;99.90
52275;DHT22;38228;50.940;4.024;2023-04-03T01:37:49;2.00;99.90
52275;DHT22;38228;50.940;4.024;2023-04-03T01:40:15;2.10;99.90
52275;DHT22;38228;50.940;4.024;2023-04-03T01:42:40;2.10;99.90
52275;DHT22;38228;50.940;4.024;2023-04-03T01:45:06;2.10;99.90
52275;DHT22;38228;50.940;4.024;2023-04-03T01:47:32;2.00;99.90
52275;DHT22;38228;50.940;4.024;2023-04-03T01:49:57;2.00;99.90
52275;DHT22;38228;50.940;4.024;2023-04-03T01:52:23;2.00;99.90
52275;DHT22;38228;50.940;4.024;2023-04-03T01:54:49;1.90;99.90
52275;DHT22;38228;50.940;4.024;2023-04-03T01:57:15;1.90;99.90
52275;DHT22;38228;50.940;4.024;2023-04-03T01:59:41;1.90;99.90
52275;DHT22;38228;50.940;4.024;2023-04-03T02:02:06;1.90;99.90
52275;DHT22;38228;50.940;4.024;2023-04-03T02:04:32;1.80;99.90
52275;DHT22;38228;50.940;4.024;2023-04-03T02:06:57;1.90;99.90
52275;DHT22;38228;50.940;4.024;2023-04-03T02:09:23;1.90;99.90
52275;DHT22;38228;50.940;4.024;2023-04-03T02:11:49;1.90;99.90
52275;DHT22;38228;50.940;4.024;2023-04-03T02:14:14;1.90;99.90
52275;DHT22;38228;50.940;4.024;2023-04-03T02:16:40;1.80;99.90
52275;DHT22;38228;50.940;4.024;2023-04-03T02:19:06;1.80;99.90
52275;DHT22;38228;50.940;4.024;2023-04-03T02:21:31;1.80;99.90
52275;DHT22;38228;50.940;4.024;2023-04-03T02:23:57;1.80;99.90
52275;DHT22;38228;50.940;4.024;2023-04-03T02:26:22;1.80;99.90
52275;DHT22;38228;50.940;4.024;2023-04-03T02:28:48;1.80;99.90
52275;DHT22;38228;50.940;4.024;2023-04-03T02:31:13;1.80;99.90
52275;DHT22;38228;50.940;4.024;2023-04-03T02:33:39;1.80;99.90
52275;DHT22;38228;50.940;4.024;2023-04-03T02:36:05;1.90;99.90
52275;DHT22;38228;50.940;4.024;2023-04-03T02:38:32;1.90;99.90
52275;DHT22;38228;50.940;4.024;2023-04-03T02:41:01;1.90;99.90
52275;DHT22;38228;50.940;4.024;2023-04-03T02:43:27;1.80;99.90
52275;DHT22;38228;50.940;4.024;2023-04-03T02:45:53;1.80;99.90
52275;DHT22;38228;50.940;4.024;2023-04-03T02:48:18;1.80;99.90
52275;DHT22;38228;50.940;4.024;2023-04-03T02:50:44;1.90;99.90
52275;DHT22;38228;50.940;4.024;2023-04-03T02:53:09;1.80;99.90
52275;DHT22;38228;50.940;4.024;2023-04-03T02:55:35;1.80;99.90
52275;DHT22;38228;50.940;4.024;2023-04-03T02:58:00;1.80;99.90
52275;DHT22;38228;50.940;4.024;2023-04-03T03:00:26;1.90;99.90
52275;DHT22;38228;50.940;4.024;2023-04-03T03:02:51;1.90;99.90
52275;DHT22;38228;50.940;4.024;2023-04-03T03:05:17;2.00;99.90
52275;DHT22;38228;50.940;4.024;2023-04-03T03:07:42;2.00;99.90
52275;DHT22;38228;50.940;4.024;2023-04-03T03:10:08;2.10;99.90
52275;DHT22;38228;50.940;4.024;2023-04-03T03:12:34;2.20;99.90
52275;DHT22;38228;50.940;4.024;2023-04-03T03:14:59;2.10;99.90
52275;DHT22;38228;50.940;4.024;2023-04-03T03:17:25;2.00;99.90
52275;DHT22;38228;50.940;4.024;2023-04-03T03:19:50;2.10;99.90
52275;DHT22;38228;50.940;4.024;2023-04-03T03:22:16;1.90;99.90
52275;DHT22;38228;50.940;4.024;2023-04-03T03:24:41;1.90;99.90
52275;DHT22;38228;50.940;4.024;2023-04-03T03:27:07;1.90;99.90
52275;DHT22;38228;50.940;4.024;2023-04-03T03:29:32;1.90;99.90
52275;DHT22;38228;50.940;4.024;2023-04-03T03:31:58;1.80;99.90
52275;DHT22;38228;50.940;4.024;2023-04-03T03:34:24;1.80;99.90
52275;DHT22;38228;50.940;4.024;2023-04-03T03:36:49;1.70;99.90
52275;DHT22;38228;50.940;4.024;2023-04-03T03:39:15;1.80;99.90
52275;DHT22;38228;50.940;4.024;2023-04-03T03:41:40;1.80;99.90
52275;DHT22;38228;50.940;4.024;2023-04-03T03:44:06;1.80;99.90
52275;DHT22;38228;50.940;4.024;2023-04-03T03:46:31;1.80;99.90
52275;DHT22;38228;50.940;4.024;2023-04-03T03:48:57;1.80;99.90
52275;DHT22;38228;50.940;4.024;2023-04-03T03:51:22;1.80;99.90
52275;DHT22;38228;50.940;4.024;2023-04-03T03:53:48;1.70;99.90
52275;DHT22;38228;50.940;4.024;2023-04-03T03:56:13;1.60;99.90
52275;DHT22;38228;50.940;4.024;2023-04-03T03:58:39;1.50;99.90
52275;DHT22;38228;50.940;4.024;2023-04-03T04:01:05;1.60;99.90
52275;DHT22;38228;50.940;4.024;2023-04-03T04:03:31;1.60;99.90
52275;DHT22;38228;50.940;4.024;2023-04-03T04:05:57;1.70;99.90
52275;DHT22;38228;50.940;4.024;2023-04-03T04:08:23;1.70;99.90
52275;DHT22;38228;50.940;4.024;2023-04-03T04:10:48;1.70;99.90
52275;DHT22;38228;50.940;4.024;2023-04-03T04:13:14;1.60;99.90
52275;DHT22;38228;50.940;4.024;2023-04-03T04:15:40;1.60;99.90
52275;DHT22;38228;50.940;4.024;2023-04-03T04:18:05;1.60;99.90
52275;DHT22;38228;50.940;4.024;2023-04-03T04:20:31;1.60;99.90
52275;DHT22;38228;50.940;4.024;2023-04-03T04:22:56;1.60;99.90
52275;DHT22;38228;50.940;4.024;2023-04-03T04:25:22;1.60;99.90
52275;DHT22;38228;50.940;4.024;2023-04-03T04:27:47;1.70;99.90
52275;DHT22;38228;50.940;4.024;2023-04-03T04:30:13;1.70;99.90
52275;DHT22;38228;50.940;4.024;2023-04-03T04:32:39;1.70;99.90
52275;DHT22;38228;50.940;4.024;2023-04-03T04:35:04;1.80;99.90
52275;DHT22;38228;50.940;4.024;2023-04-03T04:37:30;1.90;99.90
52275;DHT22;38228;50.940;4.024;2023-04-03T04:39:56;1.80;99.90
52275;DHT22;38228;50.940;4.024;2023-04-03T04:42:21;1.70;99.90
52275;DHT22;38228;50.940;4.024;2023-04-03T04:44:47;1.70;99.90
52275;DHT22;38228;50.940;4.024;2023-04-03T04:47:13;1.60;99.90
52275;DHT22;38228;50.940;4.024;2023-04-03T04:49:38;1.50;99.90
52275;DHT22;38228;50.940;4.024;2023-04-03T04:52:04;1.40;99.90
52275;DHT22;38228;50.940;4.024;2023-04-03T04:54:29;1.40;99.90
52275;DHT22;38228;50.940;4.024;2023-04-03T04:56:55;1.40;99.90
52275;DHT22;38228;50.940;4.024;2023-04-03T04:59:21;1.40;99.90
52275;DHT22;38228;50.940;4.024;2023-04-03T05:01:46;1.40;99.90
52275;DHT22;38228;50.940;4.024;2023-04-03T05:04:12;1.40;99.90
52275;DHT22;38228;50.940;4.024;2023-04-03T05:06:38;1.40;99.90
52275;DHT22;38228;50.940;4.024;2023-04-03T05:09:03;1.40;99.90
52275;DHT22;38228;50.940;4.024;2023-04-03T05:11:29;1.40;99.90
52275;DHT22;38228;50.940;4.024;2023-04-03T05:13:54;1.40;99.90
52275;DHT22;38228;50.940;4.024;2023-04-03T05:16:20;1.40;99.90
52275;DHT22;38228;50.940;4.024;2023-04-03T05:18:45;1.40;99.90
52275;DHT22;38228;50.940;4.024;2023-04-03T05:21:11;1.40;99.90
52275;DHT22;38228;50.940;4.024;2023-04-03T05:23:37;1.40;99.90
52275;DHT22;38228;50.940;4.024;2023-04-03T05:26:02;1.40;99.90
52275;DHT22;38228;50.940;4.024;2023-04-03T05:28:28;1.40;99.90
52275;DHT22;38228;50.940;4.024;2023-04-03T05:30:55;1.50;99.90
52275;DHT22;38228;50.940;4.024;2023-04-03T05:33:20;1.60;99.90
52275;DHT22;38228;50.940;4.024;2023-04-03T05:35:46;2.00;99.90
52275;DHT22;38228;50.940;4.024;2023-04-03T05:38:12;2.20;99.90
52275;DHT22;38228;50.940;4.024;2023-04-03T05:40:37;2.20;99.90
52275;DHT22;38228;50.940;4.024;2023-04-03T05:43:03;2.30;99.90
52275;DHT22;38228;50.940;4.024;2023-04-03T05:45:29;2.40;99.90
52275;DHT22;38228;50.940;4.024;2023-04-03T05:47:54;2.50;99.90
52275;DHT22;38228;50.940;4.024;2023-04-03T05:50:20;2.50;99.90
52275;DHT22;38228;50.940;4.024;2023-04-03T05:52:45;2.50;99.90
52275;DHT22;38228;50.940;4.024;2023-04-03T05:55:12;2.50;99.90
52275;DHT22;38228;50.940;4.024;2023-04-03T05:57:38;2.60;99.90
52275;DHT22;38228;50.940;4.024;2023-04-03T06:00:04;2.70;99.90
52275;DHT22;38228;50.940;4.024;2023-04-03T06:02:31;2.70;99.90
52275;DHT22;38228;50.940;4.024;2023-04-03T06:04:56;2.60;99.90
52275;DHT22;38228;50.940;4.024;2023-04-03T06:07:22;2.60;99.90
52275;DHT22;38228;50.940;4.024;2023-04-03T06:09:51;2.60;99.90
52275;DHT22;38228;50.940;4.024;2023-04-03T06:12:17;2.50;99.90
52275;DHT22;38228;50.940;4.024;2023-04-03T06:14:43;2.40;99.90
52275;DHT22;38228;50.940;4.024;2023-04-03T06:17:08;2.40;99.90
52275;DHT22;38228;50.940;4.024;2023-04-03T06:19:34;2.50;99.90
52275;DHT22;38228;50.940;4.024;2023-04-03T06:22:00;2.60;99.90
52275;DHT22;38228;50.940;4.024;2023-04-03T06:24:25;2.80;99.90
52275;DHT22;38228;50.940;4.024;2023-04-03T06:26:51;3.00;99.90
52275;DHT22;38228;50.940;4.024;2023-04-03T06:29:17;3.40;99.90
52275;DHT22;38228;50.940;4.024;2023-04-03T06:31:43;3.60;99.90
52275;DHT22;38228;50.940;4.024;2023-04-03T06:34:09;3.80;99.90
52275;DHT22;38228;50.940;4.024;2023-04-03T06:36:36;3.80;99.90
52275;DHT22;38228;50.940;4.024;2023-04-03T06:39:01;3.90;99.90
52275;DHT22;38228;50.940;4.024;2023-04-03T06:41:28;4.40;99.90
52275;DHT22;38228;50.940;4.024;2023-04-03T06:43:54;4.70;99.90
52275;DHT22;38228;50.940;4.024;2023-04-03T06:46:22;4.90;99.90
52275;DHT22;38228;50.940;4.024;2023-04-03T06:48:48;4.90;99.90
52275;DHT22;38228;50.940;4.024;2023-04-03T06:53:47;5.50;99.90
52275;DHT22;38228;50.940;4.024;2023-04-03T06:56:12;5.60;99.90
52275;DHT22;38228;50.940;4.024;2023-04-03T06:58:38;5.70;99.90
52275;DHT22;38228;50.940;4.024;2023-04-03T07:01:04;5.80;99.90
52275;DHT22;38228;50.940;4.024;2023-04-03T07:03:29;5.80;99.90
52275;DHT22;38228;50.940;4.024;2023-04-03T07:05:55;5.80;99.90
52275;DHT22;38228;50.940;4.024;2023-04-03T07:08:21;5.70;99.90
52275;DHT22;38228;50.940;4.024;2023-04-03T07:10:48;5.60;99.90
52275;DHT22;38228;50.940;4.024;2023-04-03T07:13:13;5.40;99.90
52275;DHT22;38228;50.940;4.024;2023-04-03T07:15:39;5.30;99.90
52275;DHT22;38228;50.940;4.024;2023-04-03T07:18:05;5.30;99.90
52275;DHT22;38228;50.940;4.024;2023-04-03T07:20:31;5.30;99.90
52275;DHT22;38228;50.940;4.024;2023-04-03T07:22:56;5.30;99.90
52275;DHT22;38228;50.940;4.024;2023-04-03T07:25:22;5.30;99.90
52275;DHT22;38228;50.940;4.024;2023-04-03T07:27:48;5.40;99.90
52275;DHT22;38228;50.940;4.024;2023-04-03T07:30:14;5.40;99.90
52275;DHT22;38228;50.940;4.024;2023-04-03T07:32:40;5.40;99.90
52275;DHT22;38228;50.940;4.024;2023-04-03T07:35:05;5.30;99.90
52275;DHT22;38228;50.940;4.024;2023-04-03T07:37:31;5.30;99.90
52275;DHT22;38228;50.940;4.024;2023-04-03T07:39:57;5.40;99.90
52275;DHT22;38228;50.940;4.024;2023-04-03T07:42:24;5.30;99.90
52275;DHT22;38228;50.940;4.024;2023-04-03T07:44:51;5.40;99.90
52275;DHT22;38228;50.940;4.024;2023-04-03T07:47:17;5.40;99.90
52275;DHT22;38228;50.940;4.024;2023-04-03T07:49:43;5.40;99.90
52275;DHT22;38228;50.940;4.024;2023-04-03T07:52:09;5.40;99.90
52275;DHT22;38228;50.940;4.024;2023-04-03T07:54:35;5.50;99.90
52275;DHT22;38228;50.940;4.024;2023-04-03T07:57:00;5.60;99.90
52275;DHT22;38228;50.940;4.024;2023-04-03T07:59:26;5.60;99.90
52275;DHT22;38228;50.940;4.024;2023-04-03T08:01:52;5.80;99.90
52275;DHT22;38228;50.940;4.024;2023-04-03T08:04:18;6.00;99.90
52275;DHT22;38228;50.940;4.024;2023-04-03T08:06:43;6.00;99.90
52275;DHT22;38228;50.940;4.024;2023-04-03T08:09:09;6.10;99.90
52275;DHT22;38228;50.940;4.024;2023-04-03T08:11:34;6.10;99.90
52275;DHT22;38228;50.940;4.024;2023-04-03T08:14:01;6.10;99.90
52275;DHT22;38228;50.940;4.024;2023-04-03T08:16:27;6.10;99.90
52275;DHT22;38228;50.940;4.024;2023-04-03T08:18:53;6.30;99.90
52275;DHT22;38228;50.940;4.024;2023-04-03T08:21:19;6.40;99.90
52275;DHT22;38228;50.940;4.024;2023-04-03T08:23:47;6.40;99.90
52275;DHT22;38228;50.940;4.024;2023-04-03T08:26:14;6.40;99.90
52275;DHT22;38228;50.940;4.024;2023-04-03T08:28:41;6.40;99.90
52275;DHT22;38228;50.940;4.024;2023-04-03T08:31:07;6.50;99.90
52275;DHT22;38228;50.940;4.024;2023-04-03T08:33:36;6.70;99.90
52275;DHT22;38228;50.940;4.024;2023-04-03T08:36:02;6.70;99.90
52275;DHT22;38228;50.940;4.024;2023-04-03T08:38:28;6.90;99.90
52275;DHT22;38228;50.940;4.024;2023-04-03T08:41:01;6.90;99.90
52275;DHT22;38228;50.940;4.024;2023-04-03T08:43:35;6.90;99.90
52275;DHT22;38228;50.940;4.024;2023-04-03T08:46:05;6.80;99.90
52275;DHT22;38228;50.940;4.024;2023-04-03T08:48:39;6.80;99.90
52275;DHT22;38228;50.940;4.024;2023-04-03T08:51:14;6.80;99.90
52275;DHT22;38228;50.940;4.024;2023-04-03T08:53:42;6.80;99.90
52275;DHT22;38228;50.940;4.024;2023-04-03T08:56:09;6.90;99.90
52275;DHT22;38228;50.940;4.024;2023-04-03T08:58:42;7.10;99.90
52275;DHT22;38228;50.940;4.024;2023-04-03T09:01:21;7.20;99.90
52275;DHT22;38228;50.940;4.024;2023-04-03T09:03:48;7.40;99.90
52275;DHT22;38228;50.940;4.024;2023-04-03T09:06:20;7.50;99.90
52275;DHT22;38228;50.940;4.024;2023-04-03T09:08:57;7.50;99.90
52275;DHT22;38228;50.940;4.024;2023-04-03T09:11:31;7.50;99.90
52275;DHT22;38228;50.940;4.024;2023-04-03T09:14:02;7.80;99.90
52275;DHT22;38228;50.940;4.024;2023-04-03T09:22:13;7.60;99.90
52275;DHT22;38228;50.940;4.024;2023-04-03T09:24:42;7.60;99.90
52275;DHT22;38228;50.940;4.024;2023-04-03T09:27:09;7.60;99.90
52275;DHT22;38228;50.940;4.024;2023-04-03T09:29:39;7.60;99.90
52275;DHT22;38228;50.940;4.024;2023-04-03T09:32:18;7.70;99.90
52275;DHT22;38228;50.940;4.024;2023-04-03T09:34:44;7.80;99.90
52275;DHT22;38228;50.940;4.024;2023-04-03T09:37:10;7.80;99.90
52275;DHT22;38228;50.940;4.024;2023-04-03T09:39:51;8.00;99.90
52275;DHT22;38228;50.940;4.024;2023-04-03T09:42:22;8.10;99.90
52275;DHT22;38228;50.940;4.024;2023-04-03T09:44:53;8.30;99.90
52275;DHT22;38228;50.940;4.024;2023-04-03T09:47:35;8.50;99.90
52275;DHT22;38228;50.940;4.024;2023-04-03T09:50:10;8.50;99.90
52275;DHT22;38228;50.940;4.024;2023-04-03T09:52:41;8.50;99.90
52275;DHT22;38228;50.940;4.024;2023-04-03T09:55:10;8.50;99.90
52275;DHT22;38228;50.940;4.024;2023-04-03T09:57:38;8.70;99.90
52275;DHT22;38228;50.940;4.024;2023-04-03T10:00:04;8.80;99.90
52275;DHT22;38228;50.940;4.024;2023-04-03T10:02:37;9.00;99.90
52275;DHT22;38228;50.940;4.024;2023-04-03T10:05:04;9.00;99.90
52275;DHT22;38228;50.940;4.024;2023-04-03T10:07:49;9.10;99.90
52275;DHT22;38228;50.940;4.024;2023-04-03T10:12:43;9.10;99.90
52275;DHT22;38228;50.940;4.024;2023-04-03T10:15:12;9.00;99.90
52275;DHT22;38228;50.940;4.024;2023-04-03T10:20:09;8.90;99.90
52275;DHT22;38228;50.940;4.024;2023-04-03T10:25:18;9.30;99.90
52275;DHT22;38228;50.940;4.024;2023-04-03T10:27:53;9.30;99.90
52275;DHT22;38228;50.940;4.024;2023-04-03T10:30:23;9.30;99.90
52275;DHT22;38228;50.940;4.024;2023-04-03T10:32:55;9.10;99.90
52275;DHT22;38228;50.940;4.024;2023-04-03T10:40:29;9.30;99.90
52275;DHT22;38228;50.940;4.024;2023-04-03T10:43:04;9.50;99.90
52275;DHT22;38228;50.940;4.024;2023-04-03T10:45:32;9.60;99.90
52275;DHT22;38228;50.940;4.024;2023-04-03T10:50:58;9.50;99.90
52275;DHT22;38228;50.940;4.024;2023-04-03T10:58:32;9.70;99.90
52275;DHT22;38228;50.940;4.024;2023-04-03T11:01:04;9.80;99.90
52275;DHT22;38228;50.940;4.024;2023-04-03T11:03:33;9.80;99.90
52275;DHT22;38228;50.940;4.024;2023-04-03T11:06:00;9.70;99.90
52275;DHT22;38228;50.940;4.024;2023-04-03T11:08:28;9.70;99.90
52275;DHT22;38228;50.940;4.024;2023-04-03T11:11:00;9.80;99.90
52275;DHT22;38228;50.940;4.024;2023-04-03T11:15:56;9.90;99.90
52275;DHT22;38228;50.940;4.024;2023-04-03T11:21:02;9.90;99.90
52275;DHT22;38228;50.940;4.024;2023-04-03T11:23:31;9.90;99.90
52275;DHT22;38228;50.940;4.024;2023-04-03T11:26:01;10.00;99.90
52275;DHT22;38228;50.940;4.024;2023-04-03T11:28:31;10.00;99.90
52275;DHT22;38228;50.940;4.024;2023-04-03T11:35:59;10.30;99.90
52275;DHT22;38228;50.940;4.024;2023-04-03T11:38:28;10.30;99.90
52275;DHT22;38228;50.940;4.024;2023-04-03T11:40:58;10.50;99.90
52275;DHT22;38228;50.940;4.024;2023-04-03T11:43:25;10.50;99.90
52275;DHT22;38228;50.940;4.024;2023-04-03T11:45:56;10.60;99.90
52275;DHT22;38228;50.940;4.024;2023-04-03T11:50:54;10.50;99.90
52275;DHT22;38228;50.940;4.024;2023-04-03T11:56:02;10.60;99.90
52275;DHT22;38228;50.940;4.024;2023-04-03T11:58:29;10.50;99.90
52275;DHT22;38228;50.940;4.024;2023-04-03T12:00:59;10.50;99.90
52275;DHT22;38228;50.940;4.024;2023-04-03T12:13:33;10.60;99.60
52275;DHT22;38228;50.940;4.024;2023-04-03T12:15:58;10.60;99.20
52275;DHT22;38228;50.940;4.024;2023-04-03T12:18:48;10.50;99.20
52275;DHT22;38228;50.940;4.024;2023-04-03T12:27:16;10.50;99.00
52275;DHT22;38228;50.940;4.024;2023-04-03T12:29:27;10.60;97.90
52275;DHT22;38228;50.940;4.024;2023-04-03T12:37:09;10.70;96.70
52275;DHT22;38228;50.940;4.024;2023-04-03T12:44:46;10.80;97.10
52275;DHT22;38228;50.940;4.024;2023-04-03T12:47:24;10.70;97.30
52275;DHT22;38228;50.940;4.024;2023-04-03T12:49:50;10.70;97.20
52275;DHT22;38228;50.940;4.024;2023-04-03T12:52:19;10.70;97.20
52275;DHT22;38228;50.940;4.024;2023-04-03T12:54:48;10.90;97.50
52275;DHT22;38228;50.940;4.024;2023-04-03T12:57:21;10.90;96.10
52275;DHT22;38228;50.940;4.024;2023-04-03T12:59:48;10.90;95.30
52275;DHT22;38228;50.940;4.024;2023-04-03T13:02:33;10.90;94.80
52275;DHT22;38228;50.940;4.024;2023-04-03T13:05:04;10.80;92.90
52275;DHT22;38228;50.940;4.024;2023-04-03T13:07:34;10.80;92.90
52275;DHT22;38228;50.940;4.024;2023-04-03T13:10:23;10.70;93.70
52275;DHT22;38228;50.940;4.024;2023-04-03T13:12:52;10.70;92.80
52275;DHT22;38228;50.940;4.024;2023-04-03T13:15:28;11.10;93.20
52275;DHT22;38228;50.940;4.024;2023-04-03T13:17:54;11.20;91.80
52275;DHT22;38228;50.940;4.024;2023-04-03T13:20:23;11.50;91.50
52275;DHT22;38228;50.940;4.024;2023-04-03T13:25:15;11.60;90.60
52275;DHT22;38228;50.940;4.024;2023-04-03T13:27:41;11.80;91.40
52275;DHT22;38228;50.940;4.024;2023-04-03T13:30:23;11.70;90.70
52275;DHT22;38228;50.940;4.024;2023-04-03T13:32:49;11.70;90.60
52275;DHT22;38228;50.940;4.024;2023-04-03T13:37:54;12.00;90.40
52275;DHT22;38228;50.940;4.024;2023-04-03T13:40:19;12.00;90.40
52275;DHT22;38228;50.940;4.024;2023-04-03T13:42:45;12.30;87.70
52275;DHT22;38228;50.940;4.024;2023-04-03T13:45:21;12.40;87.40
52275;DHT22;38228;50.940;4.024;2023-04-03T13:47:49;12.40;86.10
52275;DHT22;38228;50.940;4.024;2023-04-03T13:52:49;12.60;85.20
52275;DHT22;38228;50.940;4.024;2023-04-03T14:03:11;12.80;82.60
52275;DHT22;38228;50.940;4.024;2023-04-03T14:05:37;12.90;80.40
52275;DHT22;38228;50.940;4.024;2023-04-03T14:08:03;13.10;78.80
52275;DHT22;38228;50.940;4.024;2023-04-03T14:10:29;13.20;80.80
52275;DHT22;38228;50.940;4.024;2023-04-03T14:12:55;13.20;77.20
52275;DHT22;38228;50.940;4.024;2023-04-03T14:15:24;13.30;80.40
52275;DHT22;38228;50.940;4.024;2023-04-03T14:17:51;13.60;78.30
52275;DHT22;38228;50.940;4.024;2023-04-03T14:20:18;13.60;78.50
52275;DHT22;38228;50.940;4.024;2023-04-03T14:22:45;13.70;77.30
52275;DHT22;38228;50.940;4.024;2023-04-03T14:25:11;13.90;79.10
52275;DHT22;38228;50.940;4.024;2023-04-03T14:27:40;14.30;80.10
52275;DHT22;38228;50.940;4.024;2023-04-03T14:30:08;14.70;78.70
52275;DHT22;38228;50.940;4.024;2023-04-03T14:32:34;14.80;75.50
52275;DHT22;38228;50.940;4.024;2023-04-03T14:35:00;14.70;76.10
52275;DHT22;38228;50.940;4.024;2023-04-03T14:37:27;14.60;76.60
52275;DHT22;38228;50.940;4.024;2023-04-03T14:39:55;14.30;74.60
52275;DHT22;38228;50.940;4.024;2023-04-03T14:42:27;14.20;75.80
52275;DHT22;38228;50.940;4.024;2023-04-03T14:44:53;14.60;77.20
52275;DHT22;38228;50.940;4.024;2023-04-03T14:47:19;15.00;72.80
52275;DHT22;38228;50.940;4.024;2023-04-03T14:49:46;14.80;72.60
52275;DHT22;38228;50.940;4.024;2023-04-03T14:52:19;14.80;72.40
52275;DHT22;38228;50.940;4.024;2023-04-03T14:54:45;15.00;73.50
52275;DHT22;38228;50.940;4.024;2023-04-03T14:57:11;15.20;74.20
52275;DHT22;38228;50.940;4.024;2023-04-03T14:59:38;15.30;73.70
52275;DHT22;38228;50.940;4.024;2023-04-03T15:02:10;14.90;71.20
52275;DHT22;38228;50.940;4.024;2023-04-03T15:04:47;14.80;70.10
52275;DHT22;38228;50.940;4.024;2023-04-03T15:07:12;14.60;72.00
52275;DHT22;38228;50.940;4.024;2023-04-03T15:09:38;14.80;73.10
52275;DHT22;38228;50.940;4.024;2023-04-03T15:12:04;15.30;73.60
52275;DHT22;38228;50.940;4.024;2023-04-03T15:14:29;15.80;71.10
52275;DHT22;38228;50.940;4.024;2023-04-03T15:16:55;15.60;69.80
52275;DHT22;38228;50.940;4.024;2023-04-03T15:19:20;15.60;68.70
52275;DHT22;38228;50.940;4.024;2023-04-03T15:21:46;15.60;68.30
52275;DHT22;38228;50.940;4.024;2023-04-03T15:24:12;15.90;69.70
52275;DHT22;38228;50.940;4.024;2023-04-03T15:26:37;16.10;66.10
52275;DHT22;38228;50.940;4.024;2023-04-03T15:29:03;15.80;66.90
52275;DHT22;38228;50.940;4.024;2023-04-03T15:31:29;15.50;68.00
52275;DHT22;38228;50.940;4.024;2023-04-03T15:33:55;15.50;69.10
52275;DHT22;38228;50.940;4.024;2023-04-03T15:36:21;15.80;67.00
52275;DHT22;38228;50.940;4.024;2023-04-03T15:38:46;16.10;65.60
52275;DHT22;38228;50.940;4.024;2023-04-03T15:41:12;15.80;64.70
52275;DHT22;38228;50.940;4.024;2023-04-03T15:43:38;16.00;66.10
52275;DHT22;38228;50.940;4.024;2023-04-03T15:46:03;16.00;64.70
52275;DHT22;38228;50.940;4.024;2023-04-03T15:48:30;15.80;62.30
52275;DHT22;38228;50.940;4.024;2023-04-03T15:50:55;15.70;64.40
52275;DHT22;38228;50.940;4.024;2023-04-03T15:53:21;15.60;64.80
52275;DHT22;38228;50.940;4.024;2023-04-03T15:55:47;15.50;64.20
52275;DHT22;38228;50.940;4.024;2023-04-03T15:58:12;15.60;64.10
52275;DHT22;38228;50.940;4.024;2023-04-03T16:00:38;15.40;64.70
52275;DHT22;38228;50.940;4.024;2023-04-03T16:03:07;15.30;65.50
52275;DHT22;38228;50.940;4.024;2023-04-03T16:05:34;15.50;63.40
52275;DHT22;38228;50.940;4.024;2023-04-03T16:08:00;15.60;64.00
52275;DHT22;38228;50.940;4.024;2023-04-03T16:10:27;15.50;63.50
52275;DHT22;38228;50.940;4.024;2023-04-03T16:12:52;15.50;62.30
52275;DHT22;38228;50.940;4.024;2023-04-03T16:15:18;15.70;63.40
52275;DHT22;38228;50.940;4.024;2023-04-03T16:17:44;16.20;62.80
52275;DHT22;38228;50.940;4.024;2023-04-03T16:20:11;16.20;61.40
52275;DHT22;38228;50.940;4.024;2023-04-03T16:22:37;15.70;60.40
52275;DHT22;38228;50.940;4.024;2023-04-03T16:25:03;15.50;61.40
52275;DHT22;38228;50.940;4.024;2023-04-03T16:27:29;14.90;61.90
52275;DHT22;38228;50.940;4.024;2023-04-03T16:29:56;13.90;63.00
52275;DHT22;38228;50.940;4.024;2023-04-03T16:32:22;13.30;64.70
52275;DHT22;38228;50.940;4.024;2023-04-03T16:34:48;12.80;65.20
52275;DHT22;38228;50.940;4.024;2023-04-03T16:37:13;12.50;67.10
52275;DHT22;38228;50.940;4.024;2023-04-03T16:39:39;12.20;68.10
52275;DHT22;38228;50.940;4.024;2023-04-03T16:42:05;11.80;68.50
52275;DHT22;38228;50.940;4.024;2023-04-03T16:44:31;11.70;68.60
52275;DHT22;38228;50.940;4.024;2023-04-03T16:46:56;11.60;69.90
52275;DHT22;38228;50.940;4.024;2023-04-03T16:49:22;11.50;70.70
52275;DHT22;38228;50.940;4.024;2023-04-03T16:51:48;11.20;70.20
52275;DHT22;38228;50.940;4.024;2023-04-03T16:54:13;11.20;71.30
52275;DHT22;38228;50.940;4.024;2023-04-03T16:56:39;11.10;71.20
52275;DHT22;38228;50.940;4.024;2023-04-03T16:59:05;11.00;70.90
52275;DHT22;38228;50.940;4.024;2023-04-03T17:01:31;11.00;71.60
52275;DHT22;38228;50.940;4.024;2023-04-03T17:03:56;10.90;72.00
52275;DHT22;38228;50.940;4.024;2023-04-03T17:06:22;10.90;72.00
52275;DHT22;38228;50.940;4.024;2023-04-03T17:08:49;10.70;72.30
52275;DHT22;38228;50.940;4.024;2023-04-03T17:11:15;10.70;74.00
52275;DHT22;38228;50.940;4.024;2023-04-03T17:13:40;10.60;73.00